Time;durP1;ratioP1;P1;durP2;ratioP2;P2;SDS_P1;SDS_P2;PMS_P1;PMS_P2;Temp;Humidity;BMP_temperature;BMP_pressure;BME280_temperature;BME280_humidity;BME280_pressure;Samples;Min_cycle;Max_cycle;Signal;HPM_P1;HPM_P2
2020/12/05 00:00:22;;;;;;;19.23;9.43;;;;;;;;;;8255660;28;20406;-75
2020/12/05 00:04:25;;;;;;;24.92;10.05;;;;;;;;;;8255847;28;20383;-76
2020/12/05 00:08:28;;;;;;;37.08;17.60;;;;;;;;;;8255299;28;20080;-76
2020/12/05 00:12:32;;;;;;;35.10;18.20;;;;;;;;;;8254511;28;20483;-75
2020/12/05 00:16:37;;;;;;;24.35;11.45;;;;;;;;;;8255167;28;20476;-75
2020/12/05 00:20:40;;;;;;;20.08;10.45;;;;;;;;;;8255203;28;20491;-75
2020/12/05 00:24:43;;;;;;;38.67;15.82;;;;;;;;;;8255707;28;20053;-75
2020/12/05 00:28:47;;;;;;;170.23;41.30;;;;;;;;;;8254638;28;20406;-76
2020/12/05 00:32:51;;;;;;;360.15;129.70;;;;;;;;;;8255688;28;20513;-76
2020/12/05 00:36:54;;;;;;;191.65;68.78;;;;;;;;;;8254003;28;20083;-75
2020/12/05 00:40:57;;;;;;;58.08;24.92;;;;;;;;;;8254386;28;20472;-76
2020/12/05 00:45:00;;;;;;;48.20;24.10;;;;;;;;;;8254817;28;20079;-76
2020/12/05 00:49:04;;;;;;;82.28;33.20;;;;;;;;;;8253894;28;20471;-76
2020/12/05 00:53:07;;;;;;;29.80;15.13;;;;;;;;;;8253597;28;20076;-76
2020/12/05 00:57:11;;;;;;;37.38;19.10;;;;;;;;;;8252327;28;20459;-75
2020/12/05 01:01:16;;;;;;;21.70;11.98;;;;;;;;;;8253849;28;20498;-76
2020/12/05 01:05:18;;;;;;;18.15;10.15;;;;;;;;;;8253201;28;20045;-76
2020/12/05 01:09:22;;;;;;;31.25;16.80;;;;;;;;;;8254418;28;20517;-75
2020/12/05 01:13:26;;;;;;;17.48;8.55;;;;;;;;;;8253301;28;20410;-76
2020/12/05 01:17:32;;;;;;;13.95;7.25;;;;;;;;;;8252420;28;20501;-76
2020/12/05 01:21:34;;;;;;;13.88;6.45;;;;;;;;;;8252003;28;20104;-76
2020/12/05 01:25:37;;;;;;;16.67;7.10;;;;;;;;;;8252765;28;20067;-76
2020/12/05 01:29:40;;;;;;;20.30;11.10;;;;;;;;;;8252927;28;20045;-76
2020/12/05 01:33:43;;;;;;;15.43;8.68;;;;;;;;;;8253428;28;20045;-76
2020/12/05 01:37:46;;;;;;;12.48;7.03;;;;;;;;;;8253209;28;20399;-76
2020/12/05 01:41:49;;;;;;;13.35;8.70;;;;;;;;;;8252147;28;20474;-75
2020/12/05 01:45:53;;;;;;;11.98;6.38;;;;;;;;;;8251964;28;20480;-76
2020/12/05 01:49:58;;;;;;;10.82;6.25;;;;;;;;;;8251837;28;20061;-75
2020/12/05 01:54:01;;;;;;;11.02;5.82;;;;;;;;;;8251354;28;20407;-76
2020/12/05 01:58:04;;;;;;;9.55;5.55;;;;;;;;;;8251145;28;20414;-75
2020/12/05 02:02:07;;;;;;;13.77;6.72;;;;;;;;;;8252877;28;20383;-75
2020/12/05 02:06:25;;;;;;;11.73;6.78;;;;;;;;;;8252988;28;20476;-76
2020/12/05 02:10:31;;;;;;;8.60;5.38;;;;;;;;;;8250787;28;20048;-76
2020/12/05 02:14:36;;;;;;;12.32;6.65;;;;;;;;;;8250300;28;20483;-76
2020/12/05 02:18:41;;;;;;;10.02;6.38;;;;;;;;;;8256942;28;20049;-75
2020/12/05 02:22:46;;;;;;;13.25;5.75;;;;;;;;;;8256989;28;20472;-75
2020/12/05 02:26:49;;;;;;;44.83;23.52;;;;;;;;;;8256572;28;20372;-75
2020/12/05 02:30:52;;;;;;;12.18;6.75;;;;;;;;;;8258994;28;20502;-76
2020/12/05 02:34:55;;;;;;;13.95;8.05;;;;;;;;;;8257876;28;20361;-76
2020/12/05 02:39:09;;;;;;;12.35;6.97;;;;;;;;;;8258131;28;20396;-76
2020/12/05 02:43:12;;;;;;;9.45;6.00;;;;;;;;;;8258047;28;20426;-76
2020/12/05 02:47:16;;;;;;;8.25;5.55;;;;;;;;;;8259456;28;20510;-76
2020/12/05 02:51:19;;;;;;;13.30;6.35;;;;;;;;;;8258125;28;20057;-76
2020/12/05 02:55:22;;;;;;;13.50;6.75;;;;;;;;;;8257814;28;20375;-76
2020/12/05 02:59:25;;;;;;;14.25;7.32;;;;;;;;;;8258184;28;20455;-76
2020/12/05 03:03:28;;;;;;;13.43;7.35;;;;;;;;;;8258561;28;20049;-75
2020/12/05 03:07:32;;;;;;;12.18;6.72;;;;;;;;;;8258382;28;20494;-75
2020/12/05 03:11:35;;;;;;;11.68;7.38;;;;;;;;;;8256909;28;20356;-76
2020/12/05 03:15:38;;;;;;;21.52;12.48;;;;;;;;;;8257984;28;20360;-75
2020/12/05 03:19:41;;;;;;;17.40;10.35;;;;;;;;;;8256990;28;20502;-76
2020/12/05 03:23:46;;;;;;;15.02;7.70;;;;;;;;;;8256561;28;20379;-75
2020/12/05 03:27:48;;;;;;;19.85;8.07;;;;;;;;;;8256385;28;20475;-76
2020/12/05 03:31:54;;;;;;;14.60;8.85;;;;;;;;;;8255984;28;20075;-76
2020/12/05 03:35:57;;;;;;;14.05;8.63;;;;;;;;;;8256521;28;20372;-76
2020/12/05 03:40:00;;;;;;;16.50;9.20;;;;;;;;;;8257215;28;20387;-76
2020/12/05 03:44:04;;;;;;;12.43;8.38;;;;;;;;;;8256124;28;20482;-76
2020/12/05 03:48:07;;;;;;;12.02;8.07;;;;;;;;;;8257190;28;20445;-76
2020/12/05 03:52:10;;;;;;;12.02;8.20;;;;;;;;;;8258181;28;20375;-76
2020/12/05 03:56:14;;;;;;;18.60;9.48;;;;;;;;;;8255542;28;20387;-75
2020/12/05 04:00:17;;;;;;;18.15;11.10;;;;;;;;;;8256802;28;20059;-76
2020/12/05 04:04:19;;;;;;;33.40;16.48;;;;;;;;;;8256284;28;20364;-76
2020/12/05 04:08:22;;;;;;;36.58;18.65;;;;;;;;;;8255361;28;20517;-76
2020/12/05 04:12:25;;;;;;;24.05;13.68;;;;;;;;;;8253595;28;20475;-76
2020/12/05 04:16:29;;;;;;;22.05;12.55;;;;;;;;;;8255715;28;20491;-76
2020/12/05 04:20:32;;;;;;;14.55;8.75;;;;;;;;;;8255526;28;20380;-76
2020/12/05 04:24:35;;;;;;;11.00;6.47;;;;;;;;;;8253753;28;20471;-76
2020/12/05 04:28:38;;;;;;;18.67;11.05;;;;;;;;;;8254628;28;20494;-76
2020/12/05 04:32:41;;;;;;;12.77;7.95;;;;;;;;;;8255077;28;20075;-76
2020/12/05 04:36:43;;;;;;;23.38;10.55;;;;;;;;;;8254795;28;20041;-76
2020/12/05 04:40:47;;;;;;;21.98;12.45;;;;;;;;;;8253231;28;20502;-76
2020/12/05 04:44:50;;;;;;;36.05;19.60;;;;;;;;;;8254752;28;20360;-76
2020/12/05 04:48:54;;;;;;;36.15;16.98;;;;;;;;;;8252545;28;20493;-76
2020/12/05 04:53:12;;;;;;;24.20;13.45;;;;;;;;;;8253899;28;20498;-76
2020/12/05 04:57:22;;;;;;;25.90;15.85;;;;;;;;;;8251564;28;20399;-76
2020/12/05 05:01:28;;;;;;;17.90;10.25;;;;;;;;;;8254417;28;20368;-76
2020/12/05 05:05:31;;;;;;;22.60;15.20;;;;;;;;;;8252808;28;20386;-76
2020/12/05 05:09:34;;;;;;;33.83;15.85;;;;;;;;;;8202074;28;20041;-76
2020/12/05 05:13:56;;;;;;;11.60;7.53;;;;;;;;;;8254436;28;20357;-76
2020/12/05 05:18:04;;;;;;;14.52;8.02;;;;;;;;;;8252302;28;20060;-76
2020/12/05 05:22:06;;;;;;;14.50;7.10;;;;;;;;;;8253319;28;20471;-75
2020/12/05 05:26:09;;;;;;;15.02;9.00;;;;;;;;;;8249947;28;20475;-76
2020/12/05 05:30:13;;;;;;;17.05;11.43;;;;;;;;;;8254275;28;20369;-75
2020/12/05 05:34:22;;;;;;;16.08;10.68;;;;;;;;;;8253103;28;20045;-76
2020/12/05 05:38:25;;;;;;;12.95;8.15;;;;;;;;;;8291137;28;20490;-75
2020/12/05 05:42:33;;;;;;;14.52;9.07;;;;;;;;;;8318321;28;20425;-76
2020/12/05 05:46:46;;;;;;;15.02;9.02;;;;;;;;;;8317408;28;20382;-76
2020/12/05 05:54:18;;;;;;;11.65;7.70;;;;;;;;;;8425675;27;1635258;-76
2020/12/05 05:58:22;;;;;;;10.88;7.05;;;;;;;;;;8425876;27;20329;-75
2020/12/05 06:02:31;;;;;;;13.57;7.50;;;;;;;;;;8448545;27;20456;-75
2020/12/05 06:06:35;;;;;;;11.65;7.53;;;;;;;;;;8430514;27;20050;-75
2020/12/05 06:10:38;;;;;;;13.10;7.30;;;;;;;;;;8429463;27;20380;-74
2020/12/05 06:14:42;;;;;;;12.15;7.20;;;;;;;;;;8412234;27;20038;-74
2020/12/05 06:18:51;;;;;;;13.93;7.95;;;;;;;;;;8447329;27;20445;-75
2020/12/05 06:23:02;;;;;;;14.65;7.70;;;;;;;;;;8426525;27;20369;-76
2020/12/05 06:27:08;;;;;;;19.67;8.43;;;;;;;;;;8428386;27;20375;-76
2020/12/05 06:31:11;;;;;;;15.40;7.72;;;;;;;;;;8429179;27;20388;-76
2020/12/05 06:35:19;;;;;;;11.60;6.95;;;;;;;;;;8446553;27;20401;-76
2020/12/05 06:39:22;;;;;;;16.98;8.27;;;;;;;;;;8446600;27;20457;-76
2020/12/05 06:43:26;;;;;;;13.65;7.13;;;;;;;;;;8448769;27;20299;-76
2020/12/05 06:47:28;;;;;;;15.07;7.68;;;;;;;;;;8448321;27;20457;-76
2020/12/05 06:51:31;;;;;;;11.32;6.95;;;;;;;;;;8441218;27;20055;-75
2020/12/05 06:55:34;;;;;;;12.25;6.70;;;;;;;;;;8411315;27;20470;-75
2020/12/05 06:59:37;;;;;;;10.45;6.68;;;;;;;;;;8417597;27;20469;-76
2020/12/05 07:03:40;;;;;;;14.88;7.82;;;;;;;;;;8403127;27;20470;-77
2020/12/05 07:07:48;;;;;;;11.05;6.88;;;;;;;;;;8371409;27;20060;-76
2020/12/05 07:12:19;;;;;;;20.50;10.63;;;;;;;;;;8389529;27;20367;-76
2020/12/05 07:16:29;;;;;;;47.28;16.25;;;;;;;;;;8371556;27;20058;-77
2020/12/05 07:20:33;;;;;;;38.83;15.15;;;;;;;;;;8389166;27;20343;-76
2020/12/05 07:24:36;;;;;;;55.53;21.02;;;;;;;;;;8389413;27;20047;-76
2020/12/05 07:28:56;;;;;;;98.65;36.45;;;;;;;;;;8389087;27;20073;-76
2020/12/05 07:33:00;;;;;;;247.45;98.57;;;;;;;;;;8389104;27;20389;-76
2020/12/05 07:37:03;;;;;;;61.50;28.75;;;;;;;;;;8387251;27;20354;-76
2020/12/05 07:41:15;;;;;;;42.60;19.80;;;;;;;;;;8421821;27;20512;-78
2020/12/05 07:45:20;;;;;;;54.47;28.75;;;;;;;;;;8422367;27;20377;-76
2020/12/05 07:49:23;;;;;;;35.85;19.77;;;;;;;;;;8422195;27;20490;-76
2020/12/05 07:53:32;;;;;;;25.55;14.63;;;;;;;;;;8402571;27;20464;-79
2020/12/05 07:57:38;;;;;;;37.70;22.15;;;;;;;;;;8404445;27;20460;-76
2020/12/05 08:02:09;;;;;;;14.93;8.85;;;;;;;;;;8402506;27;20055;-76
2020/12/05 08:06:41;;;;;;;16.85;9.77;;;;;;;;;;8422915;27;20043;-76
2020/12/05 08:10:44;;;;;;;22.83;12.93;;;;;;;;;;8421291;27;20055;-76
2020/12/05 08:14:47;;;;;;;140.90;58.95;;;;;;;;;;8420576;27;20377;-76
2020/12/05 08:18:51;;;;;;;1184.70;457.70;;;;;;;;;;8421100;27;20449;-76
2020/12/05 08:22:54;;;;;;;95.30;38.78;;;;;;;;;;8422121;27;20460;-76
2020/12/05 08:26:58;;;;;;;30.42;15.02;;;;;;;;;;8420322;27;20472;-76
2020/12/05 08:31:12;;;;;;;40.67;18.63;;;;;;;;;;8402407;27;20500;-76
2020/12/05 08:35:16;;;;;;;678.92;307.45;;;;;;;;;;8335548;27;20458;-76
2020/12/05 08:39:20;;;;;;;452.80;167.48;;;;;;;;;;8318361;28;20474;-76
2020/12/05 08:43:26;;;;;;;30.45;15.88;;;;;;;;;;8335512;28;20078;-76
2020/12/05 08:47:29;;;;;;;24.83;15.45;;;;;;;;;;8334880;28;20485;-75
2020/12/05 08:51:32;;;;;;;14.13;8.07;;;;;;;;;;8293787;28;20355;-76
2020/12/05 08:55:35;;;;;;;19.73;7.72;;;;;;;;;;8284341;28;20504;-77
2020/12/05 08:59:39;;;;;;;22.92;12.00;;;;;;;;;;8254534;28;20371;-76
2020/12/05 09:03:42;;;;;;;13.95;7.47;;;;;;;;;;8311456;28;20466;-76
2020/12/05 09:07:56;;;;;;;13.25;8.15;;;;;;;;;;8252157;28;20414;-76
2020/12/05 09:12:07;;;;;;;14.93;8.02;;;;;;;;;;8314899;28;20451;-77
2020/12/05 09:16:10;;;;;;;17.25;8.43;;;;;;;;;;8300703;28;20474;-76
2020/12/05 09:20:19;;;;;;;108.20;57.90;;;;;;;;;;8283532;28;20381;-76
2020/12/05 09:24:22;;;;;;;521.08;269.20;;;;;;;;;;8300126;28;20374;-76
2020/12/05 09:28:25;;;;;;;623.97;279.65;;;;;;;;;;8318312;28;20360;-76
2020/12/05 09:32:42;;;;;;;772.63;340.45;;;;;;;;;;8300070;28;20390;-76
2020/12/05 09:36:45;;;;;;;976.65;410.33;;;;;;;;;;8302179;28;20390;-76
2020/12/05 09:40:48;;;;;;;739.67;300.02;;;;;;;;;;8300980;28;20455;-77
2020/12/05 09:44:52;;;;;;;819.47;313.20;;;;;;;;;;8318838;28;20482;-76
2020/12/05 09:48:54;;;;;;;1105.40;386.88;;;;;;;;;;8319432;28;20363;-77
2020/12/05 09:52:59;;;;;;;698.35;237.45;;;;;;;;;;8316622;28;20498;-77
2020/12/05 09:57:01;;;;;;;436.88;153.05;;;;;;;;;;8317966;28;20477;-76
2020/12/05 10:01:04;;;;;;;185.70;67.00;;;;;;;;;;8317587;28;20379;-76
2020/12/05 10:05:11;;;;;;;238.38;66.28;;;;;;;;;;8318024;28;20386;-76
2020/12/05 10:09:14;;;;;;;51.47;22.35;;;;;;;;;;8316436;28;20352;-76
2020/12/05 10:13:17;;;;;;;72.47;33.75;;;;;;;;;;8318647;28;20059;-76
2020/12/05 10:17:20;;;;;;;287.08;99.55;;;;;;;;;;8317909;28;20533;-76
2020/12/05 10:21:23;;;;;;;117.45;46.72;;;;;;;;;;8266407;28;20478;-76
2020/12/05 10:25:26;;;;;;;130.90;52.80;;;;;;;;;;8283817;28;20356;-76
2020/12/05 10:29:29;;;;;;;266.98;92.68;;;;;;;;;;8317477;28;20483;-76
2020/12/05 10:33:31;;;;;;;53.17;25.30;;;;;;;;;;8315841;28;20390;-76
2020/12/05 10:37:34;;;;;;;25.65;13.90;;;;;;;;;;8318762;28;20459;-77
2020/12/05 10:41:38;;;;;;;17.67;9.70;;;;;;;;;;8325571;28;20052;-76
2020/12/05 10:45:41;;;;;;;16.23;8.20;;;;;;;;;;8307168;28;20598;-78
2020/12/05 10:49:44;;;;;;;12.25;6.85;;;;;;;;;;8327366;28;20040;-78
2020/12/05 10:53:47;;;;;;;13.88;7.68;;;;;;;;;;8255652;28;20378;-77
2020/12/05 10:57:50;;;;;;;11.77;6.65;;;;;;;;;;8319973;28;20078;-78
2020/12/05 11:01:53;;;;;;;24.92;10.75;;;;;;;;;;8321287;28;20044;-77
2020/12/05 11:05:56;;;;;;;45.78;22.40;;;;;;;;;;8322552;28;20398;-77
2020/12/05 11:09:59;;;;;;;55.47;28.42;;;;;;;;;;8321987;28;20359;-78
2020/12/05 11:14:03;;;;;;;34.83;16.58;;;;;;;;;;8305166;28;20348;-77
2020/12/05 11:18:07;;;;;;;64.50;22.00;;;;;;;;;;8321902;28;20098;-78
2020/12/05 11:22:10;;;;;;;112.15;37.28;;;;;;;;;;8322016;28;20478;-78
2020/12/05 11:26:21;;;;;;;89.47;29.13;;;;;;;;;;8323498;28;20409;-76
2020/12/05 11:30:24;;;;;;;177.05;66.38;;;;;;;;;;8322021;28;20487;-77
2020/12/05 11:34:38;;;;;;;33.50;15.23;;;;;;;;;;8321393;28;20409;-78
2020/12/05 11:38:41;;;;;;;17.88;10.38;;;;;;;;;;8321390;28;20538;-77
2020/12/05 11:42:44;;;;;;;20.95;11.10;;;;;;;;;;8321541;28;20451;-77
2020/12/05 11:46:50;;;;;;;346.85;164.82;;;;;;;;;;8321370;28;20487;-77
2020/12/05 11:50:53;;;;;;;21.13;12.57;;;;;;;;;;8320704;28;20412;-75
2020/12/05 11:54:56;;;;;;;18.80;11.38;;;;;;;;;;8320322;28;20386;-77
2020/12/05 11:58:59;;;;;;;72.82;28.23;;;;;;;;;;8321232;28;20393;-77
2020/12/05 12:03:02;;;;;;;108.97;40.50;;;;;;;;;;8322032;28;20371;-77
2020/12/05 12:07:05;;;;;;;42.38;16.30;;;;;;;;;;8283902;28;20532;-77
2020/12/05 12:11:08;;;;;;;18.45;10.02;;;;;;;;;;8321360;28;20044;-76
2020/12/05 12:15:14;;;;;;;17.65;9.02;;;;;;;;;;8319740;28;20064;-77
2020/12/05 12:19:17;;;;;;;18.90;9.90;;;;;;;;;;8303045;28;20390;-77
2020/12/05 12:23:20;;;;;;;16.42;10.05;;;;;;;;;;8319811;28;20399;-77
2020/12/05 12:27:23;;;;;;;18.85;9.15;;;;;;;;;;8321209;28;20489;-77
2020/12/05 12:31:27;;;;;;;17.75;8.82;;;;;;;;;;8319234;28;20382;-77
2020/12/05 12:35:30;;;;;;;15.55;8.52;;;;;;;;;;8302904;28;20483;-77
2020/12/05 12:39:33;;;;;;;17.42;8.88;;;;;;;;;;8318846;28;20074;-77
2020/12/05 12:43:36;;;;;;;19.13;9.27;;;;;;;;;;8318895;28;20479;-77
2020/12/05 12:47:46;;;;;;;22.25;11.25;;;;;;;;;;8320099;28;20059;-77
2020/12/05 12:51:49;;;;;;;256.77;105.82;;;;;;;;;;8318674;28;20486;-78
2020/12/05 12:55:52;;;;;;;448.48;186.57;;;;;;;;;;8301652;28;20371;-77
2020/12/05 12:59:55;;;;;;;176.60;75.93;;;;;;;;;;8318613;28;20071;-77
2020/12/05 13:03:58;;;;;;;334.20;118.78;;;;;;;;;;8318675;28;20504;-77
2020/12/05 13:08:01;;;;;;;225.50;88.50;;;;;;;;;;8318015;28;20047;-77
2020/12/05 13:12:04;;;;;;;120.47;55.33;;;;;;;;;;8318274;28;20364;-77
2020/12/05 13:16:07;;;;;;;64.07;34.20;;;;;;;;;;8319037;28;20400;-77
2020/12/05 13:20:10;;;;;;;118.93;54.00;;;;;;;;;;8318249;28;20508;-76
2020/12/05 13:24:12;;;;;;;149.43;54.72;;;;;;;;;;8318932;28;20067;-77
2020/12/05 13:28:15;;;;;;;373.38;114.93;;;;;;;;;;8319067;28;20386;-77
2020/12/05 13:32:19;;;;;;;198.18;61.97;;;;;;;;;;8318729;28;20487;-77
2020/12/05 13:36:22;;;;;;;239.15;78.95;;;;;;;;;;8319571;28;20074;-77
2020/12/05 13:40:25;;;;;;;175.93;55.10;;;;;;;;;;8318725;28;20398;-77
2020/12/05 13:44:28;;;;;;;55.08;19.83;;;;;;;;;;8321287;28;20382;-77
2020/12/05 13:48:37;;;;;;;145.48;56.17;;;;;;;;;;8303341;28;20074;-77
2020/12/05 13:52:39;;;;;;;58.58;26.58;;;;;;;;;;8322368;28;20471;-77
2020/12/05 13:56:43;;;;;;;51.50;25.45;;;;;;;;;;8297805;28;20390;-77
2020/12/05 14:00:46;;;;;;;22.77;11.73;;;;;;;;;;8322070;28;20458;-77
2020/12/05 14:04:50;;;;;;;26.88;14.85;;;;;;;;;;8289012;28;20451;-77
2020/12/05 14:08:53;;;;;;;90.63;37.58;;;;;;;;;;8289358;28;20380;-76
2020/12/05 14:12:56;;;;;;;64.75;24.00;;;;;;;;;;8290008;28;20478;-76
2020/12/05 14:16:59;;;;;;;25.75;11.70;;;;;;;;;;8273459;28;20352;-75
2020/12/05 14:21:06;;;;;;;21.40;12.20;;;;;;;;;;8299332;28;20036;-76
2020/12/05 14:25:09;;;;;;;26.50;14.95;;;;;;;;;;8296762;28;20064;-76
2020/12/05 14:29:12;;;;;;;27.15;15.70;;;;;;;;;;8274929;28;20048;-76
2020/12/05 14:33:16;;;;;;;26.80;17.13;;;;;;;;;;8254773;28;20483;-75
2020/12/05 14:37:19;;;;;;;25.60;13.02;;;;;;;;;;8292714;28;20052;-75
2020/12/05 14:41:22;;;;;;;25.95;10.23;;;;;;;;;;8286550;28;20360;-76
2020/12/05 14:45:25;;;;;;;46.67;26.98;;;;;;;;;;8290864;28;20375;-75
2020/12/05 14:49:30;;;;;;;28.30;16.13;;;;;;;;;;8292448;28;20459;-75
2020/12/05 14:53:34;;;;;;;34.85;20.98;;;;;;;;;;8289888;28;20406;-75
2020/12/05 14:57:36;;;;;;;23.95;15.48;;;;;;;;;;8292349;28;20049;-76
2020/12/05 15:01:39;;;;;;;24.70;14.50;;;;;;;;;;8272094;28;20471;-76
2020/12/05 15:05:42;;;;;;;23.23;14.85;;;;;;;;;;8283180;28;20067;-76
2020/12/05 15:09:46;;;;;;;20.58;12.35;;;;;;;;;;8284306;28;20389;-76
2020/12/05 15:13:49;;;;;;;23.80;12.38;;;;;;;;;;8310858;28;20367;-76
2020/12/05 15:17:52;;;;;;;29.25;15.50;;;;;;;;;;8291088;28;20620;-76
2020/12/05 15:21:55;;;;;;;54.75;27.35;;;;;;;;;;8290042;28;20455;-76
2020/12/05 15:25:58;;;;;;;48.97;25.70;;;;;;;;;;8292168;28;20044;-76
2020/12/05 15:30:01;;;;;;;32.08;17.02;;;;;;;;;;8303213;28;20364;-77
2020/12/05 15:34:04;;;;;;;18.70;9.68;;;;;;;;;;8319379;28;20511;-76
2020/12/05 15:38:10;;;;;;;23.85;10.38;;;;;;;;;;8308573;28;20367;-77
2020/12/05 15:42:15;;;;;;;28.13;14.88;;;;;;;;;;8289726;28;20044;-77
2020/12/05 15:46:20;;;;;;;29.05;16.10;;;;;;;;;;8277471;28;20632;-77
2020/12/05 15:50:23;;;;;;;24.00;14.65;;;;;;;;;;8295775;28;20385;-76
2020/12/05 15:54:28;;;;;;;24.48;12.80;;;;;;;;;;8266970;28;20365;-76
2020/12/05 15:58:31;;;;;;;25.67;11.90;;;;;;;;;;8287996;28;20486;-76
2020/12/05 16:02:35;;;;;;;31.95;17.25;;;;;;;;;;8274836;28;20075;-76
2020/12/05 16:06:38;;;;;;;22.67;11.07;;;;;;;;;;8278449;28;20488;-76
2020/12/05 16:10:41;;;;;;;28.05;14.30;;;;;;;;;;8261362;28;20485;-77
2020/12/05 16:14:45;;;;;;;30.83;12.05;;;;;;;;;;8263936;28;20364;-76
2020/12/05 16:18:49;;;;;;;26.58;11.57;;;;;;;;;;8260438;28;20067;-76
2020/12/05 16:22:51;;;;;;;32.10;14.10;;;;;;;;;;8248335;28;20067;-76
2020/12/05 16:26:54;;;;;;;26.92;13.40;;;;;;;;;;8253127;28;20835;-76
2020/12/05 16:30:57;;;;;;;32.88;16.20;;;;;;;;;;8220627;28;20491;-77
2020/12/05 16:35:00;;;;;;;23.70;11.32;;;;;;;;;;8254333;28;20045;-77
2020/12/05 16:39:04;;;;;;;20.20;9.68;;;;;;;;;;8251954;28;20365;-76
2020/12/05 16:43:07;;;;;;;21.48;10.27;;;;;;;;;;8263510;28;20486;-77
2020/12/05 16:47:10;;;;;;;46.08;18.52;;;;;;;;;;8261908;28;20052;-77
2020/12/05 16:51:13;;;;;;;24.17;11.27;;;;;;;;;;8258172;28;20498;-75
2020/12/05 16:55:16;;;;;;;26.60;12.93;;;;;;;;;;8279849;28;20479;-76
2020/12/05 16:59:19;;;;;;;27.10;12.20;;;;;;;;;;8288187;28;20379;-76
2020/12/05 17:03:23;;;;;;;22.42;12.25;;;;;;;;;;8272101;28;20363;-76
2020/12/05 17:07:29;;;;;;;28.90;12.23;;;;;;;;;;8280763;28;20387;-77
2020/12/05 17:11:32;;;;;;;25.10;12.23;;;;;;;;;;8285349;28;20512;-76
2020/12/05 17:15:37;;;;;;;26.38;12.80;;;;;;;;;;8292395;28;20371;-76
2020/12/05 17:19:39;;;;;;;28.90;12.68;;;;;;;;;;8279002;28;20376;-75
2020/12/05 17:23:42;;;;;;;23.23;11.40;;;;;;;;;;8281939;28;20410;-75
2020/12/05 17:27:50;;;;;;;25.13;11.70;;;;;;;;;;8232091;28;20490;-76
2020/12/05 17:31:53;;;;;;;28.73;14.32;;;;;;;;;;8260899;28;20447;-75
2020/12/05 17:35:58;;;;;;;26.50;12.00;;;;;;;;;;8256347;28;20363;-76
2020/12/05 17:40:01;;;;;;;29.02;12.25;;;;;;;;;;8262666;28;20475;-76
2020/12/05 17:44:04;;;;;;;24.15;11.63;;;;;;;;;;8271027;28;20386;-75
2020/12/05 17:48:07;;;;;;;21.45;10.65;;;;;;;;;;8284829;28;20096;-75
2020/12/05 17:52:12;;;;;;;29.23;14.13;;;;;;;;;;8191130;28;20390;-76
2020/12/05 17:56:15;;;;;;;27.98;12.25;;;;;;;;;;8277822;28;20501;-75
2020/12/05 18:00:22;;;;;;;26.65;13.60;;;;;;;;;;8287430;28;20495;-75
2020/12/05 18:04:26;;;;;;;59.63;24.80;;;;;;;;;;8289207;28;20060;-76
2020/12/05 18:08:30;;;;;;;362.95;121.35;;;;;;;;;;8298197;28;20385;-75
2020/12/05 18:12:33;;;;;;;1515.25;517.78;;;;;;;;;;8308726;28;20454;-75
2020/12/05 18:16:36;;;;;;;1616.90;515.00;;;;;;;;;;8313389;28;20470;-75
2020/12/05 18:20:39;;;;;;;1999.90;969.35;;;;;;;;;;8291995;28;20383;-76
2020/12/05 18:24:42;;;;;;;1999.90;775.50;;;;;;;;;;8275216;28;20079;-76
2020/12/05 18:28:45;;;;;;;1530.00;446.88;;;;;;;;;;8306410;28;20075;-77
2020/12/05 18:32:48;;;;;;;1455.60;418.77;;;;;;;;;;8314971;28;20390;-76
2020/12/05 18:36:51;;;;;;;796.58;232.93;;;;;;;;;;8286763;28;20586;-76
2020/12/05 18:40:54;;;;;;;745.13;214.10;;;;;;;;;;8288750;28;20498;-76
2020/12/05 18:44:57;;;;;;;1284.25;305.45;;;;;;;;;;8288397;28;20455;-76
2020/12/05 18:49:02;;;;;;;1076.30;249.98;;;;;;;;;;8289320;28;20353;-76
2020/12/05 18:53:05;;;;;;;1999.90;522.10;;;;;;;;;;8286178;28;20484;-77
2020/12/05 18:57:09;;;;;;;896.95;205.93;;;;;;;;;;8292648;28;20504;-77
2020/12/05 19:01:13;;;;;;;485.42;95.70;;;;;;;;;;8243087;28;20353;-75
2020/12/05 19:05:16;;;;;;;225.30;50.22;;;;;;;;;;8258623;28;20410;-76
2020/12/05 19:09:19;;;;;;;826.05;179.90;;;;;;;;;;8237605;28;20053;-76
2020/12/05 19:13:23;;;;;;;95.38;31.98;;;;;;;;;;8261450;28;20391;-77
2020/12/05 19:17:26;;;;;;;78.85;23.95;;;;;;;;;;8246783;28;20052;-78
2020/12/05 19:21:30;;;;;;;625.05;125.85;;;;;;;;;;8264179;28;20375;-77
2020/12/05 19:25:34;;;;;;;510.65;102.63;;;;;;;;;;8264916;28;20472;-76
2020/12/05 19:29:37;;;;;;;400.23;78.80;;;;;;;;;;8268074;28;20502;-76
2020/12/05 19:33:40;;;;;;;616.72;116.10;;;;;;;;;;8335017;28;20048;-77
2020/12/05 19:37:43;;;;;;;291.52;57.00;;;;;;;;;;8287899;28;20484;-76
2020/12/05 19:41:46;;;;;;;277.05;55.88;;;;;;;;;;8325277;28;20387;-76
2020/12/05 19:45:51;;;;;;;1330.43;329.55;;;;;;;;;;8308876;28;20462;-76
2020/12/05 19:49:55;;;;;;;581.78;132.02;;;;;;;;;;8326755;28;20504;-76
2020/12/05 19:53:57;;;;;;;969.88;244.63;;;;;;;;;;8307776;28;20393;-76
2020/12/05 19:58:01;;;;;;;305.67;70.53;;;;;;;;;;8321464;28;20489;-75
2020/12/05 20:02:05;;;;;;;486.63;111.50;;;;;;;;;;8304198;28;20044;-75
2020/12/05 20:06:08;;;;;;;146.73;44.17;;;;;;;;;;8304039;28;20588;-76
2020/12/05 20:10:13;;;;;;;167.00;60.42;;;;;;;;;;8323554;28;20430;-76
2020/12/05 20:14:21;;;;;;;92.00;40.92;;;;;;;;;;8320044;28;20352;-77
2020/12/05 20:18:24;;;;;;;60.03;32.58;;;;;;;;;;8278798;28;20066;-77
2020/12/05 20:22:28;;;;;;;60.63;32.70;;;;;;;;;;8290221;28;20044;-75
2020/12/05 20:26:31;;;;;;;92.47;31.98;;;;;;;;;;8318735;28;20454;-76
2020/12/05 20:30:34;;;;;;;58.33;29.80;;;;;;;;;;8324821;28;20455;-75
2020/12/05 20:34:38;;;;;;;266.75;66.60;;;;;;;;;;8322835;28;20387;-75
2020/12/05 20:38:40;;;;;;;66.10;28.35;;;;;;;;;;8324049;28;20486;-76
2020/12/05 20:42:43;;;;;;;53.83;23.10;;;;;;;;;;8324492;28;20467;-76
2020/12/05 20:46:50;;;;;;;52.83;23.67;;;;;;;;;;8324905;28;20413;-77
2020/12/05 20:50:53;;;;;;;49.88;20.85;;;;;;;;;;8302927;28;20410;-76
2020/12/05 20:54:56;;;;;;;50.17;22.35;;;;;;;;;;8272190;28;20386;-77
2020/12/05 20:59:01;;;;;;;144.07;45.53;;;;;;;;;;8288082;28;20044;-77
2020/12/05 21:03:06;;;;;;;108.22;39.05;;;;;;;;;;8290102;28;20383;-77
2020/12/05 21:07:10;;;;;;;86.10;32.65;;;;;;;;;;8271802;28;20445;-76
2020/12/05 21:11:13;;;;;;;119.90;45.17;;;;;;;;;;8290000;28;20044;-77
2020/12/05 21:15:16;;;;;;;102.03;40.22;;;;;;;;;;8290689;28;20485;-77
2020/12/05 21:19:19;;;;;;;105.72;40.92;;;;;;;;;;8292211;28;20491;-76
2020/12/05 21:23:25;;;;;;;57.60;22.38;;;;;;;;;;8290456;28;20409;-76
2020/12/05 21:27:28;;;;;;;62.60;27.73;;;;;;;;;;8270389;28;20071;-77
2020/12/05 21:31:31;;;;;;;59.92;23.00;;;;;;;;;;8288139;28;20386;-75
2020/12/05 21:35:38;;;;;;;58.50;25.23;;;;;;;;;;8289327;28;20379;-75
2020/12/05 21:39:41;;;;;;;34.40;17.23;;;;;;;;;;8270848;28;20538;-76
2020/12/05 21:43:44;;;;;;;46.25;20.25;;;;;;;;;;8286764;28;20455;-76
2020/12/05 21:47:47;;;;;;;41.35;18.77;;;;;;;;;;8268268;28;20398;-76
2020/12/05 21:51:52;;;;;;;37.22;15.88;;;;;;;;;;8287109;28;20413;-76
2020/12/05 21:55:55;;;;;;;31.73;15.38;;;;;;;;;;8286259;28;20479;-76
2020/12/05 21:59:58;;;;;;;31.95;14.60;;;;;;;;;;8289057;28;20063;-76
2020/12/05 22:04:01;;;;;;;36.33;16.20;;;;;;;;;;8287156;28;20360;-76
2020/12/05 22:08:04;;;;;;;52.75;26.00;;;;;;;;;;8289154;28;20479;-76
2020/12/05 22:12:08;;;;;;;58.53;25.25;;;;;;;;;;8287524;28;20364;-75
2020/12/05 22:16:10;;;;;;;53.50;22.55;;;;;;;;;;8288567;28;20479;-76
2020/12/05 22:20:14;;;;;;;29.80;14.80;;;;;;;;;;8289059;28;20052;-76
2020/12/05 22:24:19;;;;;;;41.40;20.50;;;;;;;;;;8269842;28;20489;-76
2020/12/05 22:28:22;;;;;;;62.17;28.20;;;;;;;;;;8287476;28;20479;-75
2020/12/05 22:32:26;;;;;;;35.40;17.40;;;;;;;;;;8288468;28;20048;-76
2020/12/05 22:36:29;;;;;;;29.00;13.95;;;;;;;;;;8292995;28;20044;-75
2020/12/05 22:40:33;;;;;;;31.27;14.70;;;;;;;;;;8292317;28;20063;-76
2020/12/05 22:44:36;;;;;;;33.45;14.80;;;;;;;;;;8292920;28;20398;-76
2020/12/05 22:48:39;;;;;;;32.88;13.85;;;;;;;;;;8294688;28;20471;-76
2020/12/05 22:52:42;;;;;;;32.97;15.32;;;;;;;;;;8295465;28;20463;-77
2020/12/05 22:56:49;;;;;;;26.27;13.80;;;;;;;;;;8276549;28;20363;-76
2020/12/05 23:00:53;;;;;;;29.38;14.25;;;;;;;;;;8295435;28;20383;-76
2020/12/05 23:04:56;;;;;;;33.70;13.85;;;;;;;;;;8296551;28;20501;-76
2020/12/05 23:08:59;;;;;;;25.42;13.63;;;;;;;;;;8295971;28;20464;-77
2020/12/05 23:13:02;;;;;;;29.83;15.25;;;;;;;;;;8294314;28;20479;-77
2020/12/05 23:17:06;;;;;;;33.72;16.70;;;;;;;;;;8294620;28;20483;-77
2020/12/05 23:21:09;;;;;;;41.55;19.08;;;;;;;;;;8277125;28;20483;-76
2020/12/05 23:25:13;;;;;;;40.17;20.15;;;;;;;;;;8292772;28;20391;-76
2020/12/05 23:29:16;;;;;;;43.75;21.05;;;;;;;;;;8293939;28;20374;-76
2020/12/05 23:37:41;;;;;;;29.33;13.38;;;;;;;;;;8293994;28;20375;-76
2020/12/05 23:41:50;;;;;;;35.33;16.92;;;;;;;;;;8294462;28;20481;-76
2020/12/05 23:45:52;;;;;;;41.05;21.30;;;;;;;;;;8293839;28;20365;-76